Weather at Munich Airport

Public forecast

Using degrees Celsius for public forecast. Weather courtesy of forecast.io.

Current aviation weather report (METAR) for Munich Airport

Retrieved 2021/09/26 23:20 UTC (40 minutes ago):

EDDM 262320Z 26007KT 230V290 9999 -RA FEW008 15/15 Q1020 RERA TEMPO RA

Aviation forecast (TAF) for Munich Airport

Forecast is more than 6 hours old.

Retrieved 2021/09/26 12:27 UTC (12 hours ago):

TAF EDDM 261100Z 2612/2718 07006KT CAVOK BECMG 2612/2615 31005KT PROB40 TEMPO 2618/2622 28020G35KT TSRA BKN010 BKN035CB TEMPO 2622/2710 BKN012 PROB30 TEMPO 2622/2704 SHRA BKN008TCU